122-й км

Карта отелей и гостиниц, располагающихся рядом с аэропортом 122-й км :

122-й км Ханты-Мансийский автономный округ - Югра 62° 56' 11.6412" N, 62° 1' 25.32" E
122-й км Ханты-Мансийский автономный округ - Югра 62° 56' 11.6412" N, 62° 1' 25.32" E
Код аэродрома ИКАО
HB39
Код аэродрома RU
ХБ39
Координаты
N62.93657° E062.02370°
Превышение над уровнем моря
60
Основная полоса
34/16
Курс магнитный
340,4/160,4
Длина основной ВПП
24
Ширина основной ВПП
24
Покрытие основной ВПП
Твёрдое
Освещение ВПП
Нет
Тип: 
Вертодром
Класс аэродрома: 
Принадлежность: 
ГА
Статус: 
Действующий
Сайт: 
E-mail аэродрома: 
Страна: 
Россия
Регион: 
Ханты-Мансийский автономный округ - Югра
Город: 
Дополнительная информация: 
Оператор: нет данных.

Найти трансфер

С помощью этой формы Вы можете найти трансфер из аэропорта 122-й км в город, аэропорт или вокзал:

Карта места

Javascript is required to view this map.

Погода в аэропортах:

Авиационная погода в Сургуте

Регион: 
Погода METAR: 
USRR 050900Z 36002MPS 320V040 2100 R07/1900N BR BKN022 19/18 Q1012 R07/CLRD60 TEMPO 1000 BR RMK OBST OBSC QFE754
Время наблюдения
2021-08-05T09:00:00Z
Температура C
19.0
Точка росы
18.0
Направление ветра
360
Скорость ветра (узлы)
4
Метео видимость
1.3
Явления погоды
BR
Условия полета
IFR
Аэропорт подробнее: 

Авиационная погода в Якутске

Регион: 
Погода METAR: 
UEEE 050800Z 01003MPS 5000 FU NSC 26/06 Q1003 R23L/09//70 NOSIG RMK QFE743
Время наблюдения
2021-08-05T08:00:00Z
Температура C
26.0
Точка росы
6.0
Направление ветра
10
Скорость ветра (узлы)
6
Метео видимость
3.11
Явления погоды
FU
Условия полета
MVFR
Аэропорт подробнее: 

Авиационная погода в Архангельске

Регион: 
Погода METAR: 
ULAA 050800Z 29005MPS 250V330 9999 -SHRA BKN014CB 12/10 Q1014 R26/290060 NOSIG RMK QFE759/1012
Время наблюдения
2021-08-05T08:00:00Z
Температура C
12.0
Точка росы
10.0
Направление ветра
290
Скорость ветра (узлы)
10
Метео видимость
6.21
Явления погоды
-SHRA
Условия полета
MVFR
Аэропорт подробнее: 

Авиационная погода в аэропорту Алыкель

Регион: 
Погода METAR: 
UOOO 050800Z 02004MPS 1000 R01/1000N FU SCT024 19/14 Q1015 R01/CLRD60 NOSIG RMK QFE747/0996
Время наблюдения
2021-08-05T08:00:00Z
Температура C
19.0
Точка росы
14.0
Направление ветра
20
Скорость ветра (узлы)
8
Метео видимость
0.62
Явления погоды
FU
Условия полета
LIFR
Аэропорт подробнее: